Etusivu
METAR-TAF:

METAR-TAF

Lentoasemat :

Stavanger, Norja

Stavangerin lentoasema

Leveyspiiri: 58-53N, Pituuspiiri: 005-38E, korkeus merenpinnasta: 0 m

Tämänhetkinen sää

Tämä raportti tehtiin 11 minuuttia sitten, kello 10.20 UTC
Tuuli 7 kn idästä/kaakosta
Lämpötila 17°C
Kosteus 63%
Ilmanpaine 1026 hPa
Näkyvyys 10 km tai enemmän
Muutamia pilviä 3500 ft:n korkeudessa
Hajonneita pilviä 6000 ft:n korkeudessa

METAR: ENZV 241020Z 11007KT 9999 FEW035 BKN060 17/10 Q1026 NOSIG

Aika: 12:31 (10:31 UTC)

Sääennuste

Ennuste voimassa 24. päivästä klo 06 UTC - 25. päivään klo 06 UTC
Tuuli 8 kn etelästä/kaakosta
Näkyvyys 10 km tai enemmän
Muutamia pilviä 2000 ft:n korkeudessa
Hajonneita pilviä 4000 ft:n korkeudessa
Ajoittain
24. päivästä klo 18 UTC - 25. päivään klo 06 UTC
Tuuli 15 kn kaakosta puuskistuen 25 kn:hen

TAF: ENZV 2406/2506 15008KT 9999 FEW020 BKN040 TEMPO 2418/2506 14015G25KT

Säähavainnot ja -ennusteet yli 4000 lentoasemalta (METAR- ja TAF-raportit).

Käytössä olevat sääasemat on merkitty karttaan keltaisilla ja punaisilla pisteillä.

Aseta hiiri pisteen päälle nähdäksesi sääaseman nimen.

Klikkaa sitten nähdäksesi säähavainnot ja -ennusteet.

Kartan vaihtaminen: klikkaa mustalla rastilla varustettuja vihreitä pisteitä, niin voit zoomata sisään; viivalla varustettua vihreää pistettä, niin voit zoomata ulos tai vihreitä nuolia, niin pääset viereisille kartoille.


METAR-TAF: